Portada
METAR-TAF:

METAR-TAF

Aeroports :

Aeroport de Soyo

Soyo, Angola

latitud: 6-8-28S, longitud: 12-22-19E, altitud: 5 m

Observació

L'informe es va fer fa 1 hora i 15 minuts, a les 07:00 UTC
Vent 10 kt del Sud-Oest
Temperatura
Pressió
Visibilitat 10 km o més
Núvols disperses a una alçada de 1000 ft

METAR: FNSO 300700Z 22010KT 9999 SCT010 ///// Q////

Hora: 09:15 (08:15 UTC)

Pronòstic

L'informe es va fer fa 9 hores i 15 minuts, a les 23:00 UTC
Pronòstic vàlid del 30 a les 00 UTC al 30 a les 12 UTC
Vent 4 kt del Oest/Sud-Oest
Visibilitat: 9000 m
Núvols disperses a una alçada de 1000 ft
Evolucionant progressivament
l' 30 a les 06 UTC al 30 a les 08 UTC
Vent 5 kt del Sud
Visibilitat: 8000 m
Cel ennuvolat a una alçada de 800 ft
Evolucionant progressivament
l' 30 a les 10 UTC al 30 a les 12 UTC
Vent 11 kt del Oest/Sud-Oest
Visibilitat 10 km o més

TAF: FNSO 292300Z 3000/3012 24004KT 9000 SCT010 BECMG 3006/3008 18005KT 8000 BKN008 BECMG 3010/3012 25011KT 9999

Observacions i pronòstics meteorològics de més de 4000 aeroports (METAR i TAF).

Les estacions disponibles són els punts grocs i vermells al mapa.

Posi el ratolí al punt desitjat per veure el nom de l'estació.

Feu clic per veure les observacions i els pronòstics meteorològics.

Per canviar el mapa: feu clic els botons verds amb una creu de color negre per apropar; al botó verd amb un guió per allunyar la imatge; o en les fletxes verdes per a mapes adjacents.


METAR-TAF: